sensor_id;sensor_type;location;lat;lon;timestamp;temperature;humidity
44982;DHT22;30716;41.740;-70.400;2022-07-06T00:01:19;23.30;54.30
44982;DHT22;30716;41.740;-70.400;2022-07-06T00:03:46;23.30;54.50
44982;DHT22;30716;41.740;-70.400;2022-07-06T00:06:12;23.30;54.40
44982;DHT22;30716;41.740;-70.400;2022-07-06T00:08:39;23.30;54.30
44982;DHT22;30716;41.740;-70.400;2022-07-06T00:11:06;23.30;54.40
44982;DHT22;30716;41.740;-70.400;2022-07-06T00:13:32;23.30;54.30
44982;DHT22;30716;41.740;-70.400;2022-07-06T00:15:58;23.30;54.30
44982;DHT22;30716;41.740;-70.400;2022-07-06T00:18:24;23.40;54.50
44982;DHT22;30716;41.740;-70.400;2022-07-06T00:20:50;23.30;54.40
44982;DHT22;30716;41.740;-70.400;2022-07-06T00:23:17;23.30;54.40
44982;DHT22;30716;41.740;-70.400;2022-07-06T00:25:43;23.40;54.50
44982;DHT22;30716;41.740;-70.400;2022-07-06T00:28:09;23.40;54.40
44982;DHT22;30716;41.740;-70.400;2022-07-06T00:30:35;23.40;54.40
44982;DHT22;30716;41.740;-70.400;2022-07-06T00:33:01;23.40;54.30
44982;DHT22;30716;41.740;-70.400;2022-07-06T00:35:28;23.40;54.40
44982;DHT22;30716;41.740;-70.400;2022-07-06T00:37:54;23.40;54.30
44982;DHT22;30716;41.740;-70.400;2022-07-06T00:40:20;23.40;54.30
44982;DHT22;30716;41.740;-70.400;2022-07-06T00:42:47;23.40;54.50
44982;DHT22;30716;41.740;-70.400;2022-07-06T00:45:15;23.40;54.30
44982;DHT22;30716;41.740;-70.400;2022-07-06T00:47:43;23.40;54.30
44982;DHT22;30716;41.740;-70.400;2022-07-06T00:50:11;23.40;54.30
44982;DHT22;30716;41.740;-70.400;2022-07-06T00:53:02;23.40;54.50
44982;DHT22;30716;41.740;-70.400;2022-07-06T00:55:32;23.40;54.30
44982;DHT22;30716;41.740;-70.400;2022-07-06T00:58:01;23.40;54.40
44982;DHT22;30716;41.740;-70.400;2022-07-06T01:00:29;23.40;54.50
44982;DHT22;30716;41.740;-70.400;2022-07-06T01:02:55;23.40;54.40
44982;DHT22;30716;41.740;-70.400;2022-07-06T01:05:22;23.40;54.50
44982;DHT22;30716;41.740;-70.400;2022-07-06T01:07:49;23.40;54.60
44982;DHT22;30716;41.740;-70.400;2022-07-06T01:10:17;23.40;54.60
44982;DHT22;30716;41.740;-70.400;2022-07-06T01:12:45;23.40;54.60
44982;DHT22;30716;41.740;-70.400;2022-07-06T01:15:17;23.40;54.60
44982;DHT22;30716;41.740;-70.400;2022-07-06T01:17:44;23.50;54.70
44982;DHT22;30716;41.740;-70.400;2022-07-06T01:20:11;23.40;54.60
44982;DHT22;30716;41.740;-70.400;2022-07-06T01:22:38;23.50;54.70
44982;DHT22;30716;41.740;-70.400;2022-07-06T01:25:06;23.50;54.70
44982;DHT22;30716;41.740;-70.400;2022-07-06T01:27:34;23.50;54.90
44982;DHT22;30716;41.740;-70.400;2022-07-06T01:30:05;23.50;54.70
44982;DHT22;30716;41.740;-70.400;2022-07-06T01:32:31;23.50;54.70
44982;DHT22;30716;41.740;-70.400;2022-07-06T01:34:58;23.50;54.70
44982;DHT22;30716;41.740;-70.400;2022-07-06T01:37:24;23.40;54.70
44982;DHT22;30716;41.740;-70.400;2022-07-06T01:39:50;23.40;54.90
44982;DHT22;30716;41.740;-70.400;2022-07-06T01:42:16;23.50;54.90
44982;DHT22;30716;41.740;-70.400;2022-07-06T01:44:43;23.50;55.00
44982;DHT22;30716;41.740;-70.400;2022-07-06T01:47:11;23.50;54.90
44982;DHT22;30716;41.740;-70.400;2022-07-06T01:49:37;23.50;54.80
44982;DHT22;30716;41.740;-70.400;2022-07-06T01:52:03;23.50;55.00
44982;DHT22;30716;41.740;-70.400;2022-07-06T01:54:29;23.50;55.00
44982;DHT22;30716;41.740;-70.400;2022-07-06T01:56:55;23.50;55.20
44982;DHT22;30716;41.740;-70.400;2022-07-06T01:59:21;23.50;55.10
44982;DHT22;30716;41.740;-70.400;2022-07-06T02:01:47;23.50;55.10
44982;DHT22;30716;41.740;-70.400;2022-07-06T02:04:14;23.50;55.10
44982;DHT22;30716;41.740;-70.400;2022-07-06T02:06:40;23.50;55.20
44982;DHT22;30716;41.740;-70.400;2022-07-06T02:09:06;23.50;55.20
44982;DHT22;30716;41.740;-70.400;2022-07-06T02:11:32;23.50;55.10
44982;DHT22;30716;41.740;-70.400;2022-07-06T02:13:58;23.50;55.10
44982;DHT22;30716;41.740;-70.400;2022-07-06T02:16:24;23.50;55.10
44982;DHT22;30716;41.740;-70.400;2022-07-06T02:18:51;23.50;55.10
44982;DHT22;30716;41.740;-70.400;2022-07-06T02:21:17;23.50;55.10
44982;DHT22;30716;41.740;-70.400;2022-07-06T02:23:43;23.50;55.10
44982;DHT22;30716;41.740;-70.400;2022-07-06T02:26:09;23.60;55.20
44982;DHT22;30716;41.740;-70.400;2022-07-06T02:28:36;23.60;55.20
44982;DHT22;30716;41.740;-70.400;2022-07-06T02:31:02;23.50;55.10
44982;DHT22;30716;41.740;-70.400;2022-07-06T02:33:28;23.50;55.10
44982;DHT22;30716;41.740;-70.400;2022-07-06T02:35:54;23.50;55.00
44982;DHT22;30716;41.740;-70.400;2022-07-06T02:38:20;23.60;55.00
44982;DHT22;30716;41.740;-70.400;2022-07-06T02:40:47;23.50;54.80
44982;DHT22;30716;41.740;-70.400;2022-07-06T02:43:13;23.50;54.70
44982;DHT22;30716;41.740;-70.400;2022-07-06T02:45:39;23.50;55.10
44982;DHT22;30716;41.740;-70.400;2022-07-06T02:48:05;23.50;55.20
44982;DHT22;30716;41.740;-70.400;2022-07-06T02:50:31;23.50;55.00
44982;DHT22;30716;41.740;-70.400;2022-07-06T02:52:58;23.50;54.80
44982;DHT22;30716;41.740;-70.400;2022-07-06T02:55:24;23.50;54.80
44982;DHT22;30716;41.740;-70.400;2022-07-06T02:57:50;23.50;54.80
44982;DHT22;30716;41.740;-70.400;2022-07-06T03:00:16;23.50;54.90
44982;DHT22;30716;41.740;-70.400;2022-07-06T03:02:43;23.50;55.00
44982;DHT22;30716;41.740;-70.400;2022-07-06T03:05:09;23.60;55.00
44982;DHT22;30716;41.740;-70.400;2022-07-06T03:07:35;23.50;54.90
44982;DHT22;30716;41.740;-70.400;2022-07-06T03:10:01;23.60;55.00
44982;DHT22;30716;41.740;-70.400;2022-07-06T03:12:27;23.50;54.50
44982;DHT22;30716;41.740;-70.400;2022-07-06T03:14:53;23.60;54.60
44982;DHT22;30716;41.740;-70.400;2022-07-06T03:17:19;23.50;54.70
44982;DHT22;30716;41.740;-70.400;2022-07-06T03:19:46;23.50;54.80
44982;DHT22;30716;41.740;-70.400;2022-07-06T03:22:13;23.50;54.70
44982;DHT22;30716;41.740;-70.400;2022-07-06T03:24:39;23.40;54.50
44982;DHT22;30716;41.740;-70.400;2022-07-06T03:27:05;23.40;54.60
44982;DHT22;30716;41.740;-70.400;2022-07-06T03:29:32;23.40;54.50
44982;DHT22;30716;41.740;-70.400;2022-07-06T03:31:58;23.40;54.70
44982;DHT22;30716;41.740;-70.400;2022-07-06T03:34:24;23.40;54.90
44982;DHT22;30716;41.740;-70.400;2022-07-06T03:36:50;23.40;55.00
44982;DHT22;30716;41.740;-70.400;2022-07-06T03:39:16;23.40;55.10
44982;DHT22;30716;41.740;-70.400;2022-07-06T03:41:43;23.40;55.00
44982;DHT22;30716;41.740;-70.400;2022-07-06T03:44:09;23.40;55.10
44982;DHT22;30716;41.740;-70.400;2022-07-06T03:46:35;23.40;55.20
44982;DHT22;30716;41.740;-70.400;2022-07-06T03:49:01;23.40;55.20
44982;DHT22;30716;41.740;-70.400;2022-07-06T03:51:27;23.40;55.40
44982;DHT22;30716;41.740;-70.400;2022-07-06T03:53:53;23.40;55.40
44982;DHT22;30716;41.740;-70.400;2022-07-06T03:56:19;23.50;55.40
44982;DHT22;30716;41.740;-70.400;2022-07-06T03:58:59;23.50;55.50
44982;DHT22;30716;41.740;-70.400;2022-07-06T04:01:26;23.50;55.40
44982;DHT22;30716;41.740;-70.400;2022-07-06T04:03:52;23.50;55.20
44982;DHT22;30716;41.740;-70.400;2022-07-06T04:06:18;23.50;55.20
44982;DHT22;30716;41.740;-70.400;2022-07-06T04:08:45;23.50;55.20
44982;DHT22;30716;41.740;-70.400;2022-07-06T04:11:11;23.50;55.10
44982;DHT22;30716;41.740;-70.400;2022-07-06T04:13:37;23.40;55.20
44982;DHT22;30716;41.740;-70.400;2022-07-06T04:16:05;23.50;55.20
44982;DHT22;30716;41.740;-70.400;2022-07-06T04:18:32;23.40;55.00
44982;DHT22;30716;41.740;-70.400;2022-07-06T04:20:58;23.50;55.40
44982;DHT22;30716;41.740;-70.400;2022-07-06T04:23:24;23.50;55.40
44982;DHT22;30716;41.740;-70.400;2022-07-06T04:25:51;23.50;55.30
44982;DHT22;30716;41.740;-70.400;2022-07-06T04:28:17;23.50;55.40
44982;DHT22;30716;41.740;-70.400;2022-07-06T04:30:43;23.50;55.50
44982;DHT22;30716;41.740;-70.400;2022-07-06T04:33:09;23.50;55.50
44982;DHT22;30716;41.740;-70.400;2022-07-06T04:35:35;23.50;55.70
44982;DHT22;30716;41.740;-70.400;2022-07-06T04:38:01;23.50;55.70
44982;DHT22;30716;41.740;-70.400;2022-07-06T04:40:27;23.50;55.70
44982;DHT22;30716;41.740;-70.400;2022-07-06T04:42:53;23.50;55.70
44982;DHT22;30716;41.740;-70.400;2022-07-06T04:45:20;23.50;55.70
44982;DHT22;30716;41.740;-70.400;2022-07-06T04:47:46;23.50;55.80
44982;DHT22;30716;41.740;-70.400;2022-07-06T04:50:12;23.50;55.70
44982;DHT22;30716;41.740;-70.400;2022-07-06T04:52:38;23.50;55.80
44982;DHT22;30716;41.740;-70.400;2022-07-06T04:55:05;23.60;56.00
44982;DHT22;30716;41.740;-70.400;2022-07-06T04:57:32;23.50;55.80
44982;DHT22;30716;41.740;-70.400;2022-07-06T04:59:58;23.50;55.90
44982;DHT22;30716;41.740;-70.400;2022-07-06T05:02:24;23.50;56.00
44982;DHT22;30716;41.740;-70.400;2022-07-06T05:04:50;23.50;56.00
44982;DHT22;30716;41.740;-70.400;2022-07-06T05:07:17;23.50;56.00
44982;DHT22;30716;41.740;-70.400;2022-07-06T05:09:43;23.50;56.00
44982;DHT22;30716;41.740;-70.400;2022-07-06T05:12:10;23.60;56.20
44982;DHT22;30716;41.740;-70.400;2022-07-06T05:14:36;23.50;55.90
44982;DHT22;30716;41.740;-70.400;2022-07-06T05:17:03;23.50;55.80
44982;DHT22;30716;41.740;-70.400;2022-07-06T05:19:29;23.50;55.40
44982;DHT22;30716;41.740;-70.400;2022-07-06T05:21:55;23.60;55.40
44982;DHT22;30716;41.740;-70.400;2022-07-06T05:24:21;23.50;55.20
44982;DHT22;30716;41.740;-70.400;2022-07-06T05:26:47;23.50;55.20
44982;DHT22;30716;41.740;-70.400;2022-07-06T05:29:13;23.50;55.60
44982;DHT22;30716;41.740;-70.400;2022-07-06T05:31:39;23.50;55.60
44982;DHT22;30716;41.740;-70.400;2022-07-06T05:34:06;23.40;55.60
44982;DHT22;30716;41.740;-70.400;2022-07-06T05:36:32;23.40;55.70
44982;DHT22;30716;41.740;-70.400;2022-07-06T05:38:58;23.40;55.90
44982;DHT22;30716;41.740;-70.400;2022-07-06T05:41:24;23.40;55.90
44982;DHT22;30716;41.740;-70.400;2022-07-06T05:43:50;23.40;55.80
44982;DHT22;30716;41.740;-70.400;2022-07-06T05:46:16;23.50;56.10
44982;DHT22;30716;41.740;-70.400;2022-07-06T05:48:42;23.40;56.10
44982;DHT22;30716;41.740;-70.400;2022-07-06T05:51:27;23.50;56.10
44982;DHT22;30716;41.740;-70.400;2022-07-06T05:53:53;23.50;56.20
44982;DHT22;30716;41.740;-70.400;2022-07-06T05:56:19;23.50;56.20
44982;DHT22;30716;41.740;-70.400;2022-07-06T05:58:45;23.50;56.20
44982;DHT22;30716;41.740;-70.400;2022-07-06T06:01:12;23.50;56.20
44982;DHT22;30716;41.740;-70.400;2022-07-06T06:03:38;23.50;56.20
44982;DHT22;30716;41.740;-70.400;2022-07-06T06:06:04;23.50;56.30
44982;DHT22;30716;41.740;-70.400;2022-07-06T06:08:30;23.50;56.30
44982;DHT22;30716;41.740;-70.400;2022-07-06T06:10:57;23.50;56.40
44982;DHT22;30716;41.740;-70.400;2022-07-06T06:13:23;23.50;56.10
44982;DHT22;30716;41.740;-70.400;2022-07-06T06:15:49;23.50;56.20
44982;DHT22;30716;41.740;-70.400;2022-07-06T06:18:15;23.50;56.20
44982;DHT22;30716;41.740;-70.400;2022-07-06T06:20:45;23.50;56.30
44982;DHT22;30716;41.740;-70.400;2022-07-06T06:23:11;23.50;56.40
44982;DHT22;30716;41.740;-70.400;2022-07-06T06:25:39;23.50;56.20
44982;DHT22;30716;41.740;-70.400;2022-07-06T06:28:07;23.50;56.10
44982;DHT22;30716;41.740;-70.400;2022-07-06T06:30:34;23.60;56.40
44982;DHT22;30716;41.740;-70.400;2022-07-06T06:35:41;23.60;56.50
44982;DHT22;30716;41.740;-70.400;2022-07-06T06:38:07;23.50;56.40
44982;DHT22;30716;41.740;-70.400;2022-07-06T06:40:33;23.60;56.50
44982;DHT22;30716;41.740;-70.400;2022-07-06T06:43:00;23.60;56.40
44982;DHT22;30716;41.740;-70.400;2022-07-06T06:45:26;23.60;56.50
44982;DHT22;30716;41.740;-70.400;2022-07-06T06:47:52;23.60;56.50
44982;DHT22;30716;41.740;-70.400;2022-07-06T06:50:18;23.60;56.50
44982;DHT22;30716;41.740;-70.400;2022-07-06T06:52:44;23.60;56.50
44982;DHT22;30716;41.740;-70.400;2022-07-06T06:55:11;23.60;56.50
44982;DHT22;30716;41.740;-70.400;2022-07-06T06:57:37;23.60;56.60
44982;DHT22;30716;41.740;-70.400;2022-07-06T07:00:04;23.60;56.60
44982;DHT22;30716;41.740;-70.400;2022-07-06T07:02:30;23.60;57.30
44982;DHT22;30716;41.740;-70.400;2022-07-06T07:04:56;23.60;56.60
44982;DHT22;30716;41.740;-70.400;2022-07-06T07:07:22;23.60;56.50
44982;DHT22;30716;41.740;-70.400;2022-07-06T07:09:48;23.60;56.60
44982;DHT22;30716;41.740;-70.400;2022-07-06T07:12:15;23.60;56.60
44982;DHT22;30716;41.740;-70.400;2022-07-06T07:14:43;23.60;56.70
44982;DHT22;30716;41.740;-70.400;2022-07-06T07:17:09;23.70;56.60
44982;DHT22;30716;41.740;-70.400;2022-07-06T07:19:37;23.60;56.50
44982;DHT22;30716;41.740;-70.400;2022-07-06T07:22:04;23.70;56.50
44982;DHT22;30716;41.740;-70.400;2022-07-06T07:24:30;23.60;56.50
44982;DHT22;30716;41.740;-70.400;2022-07-06T07:26:56;23.70;56.60
44982;DHT22;30716;41.740;-70.400;2022-07-06T07:29:22;23.70;56.70
44982;DHT22;30716;41.740;-70.400;2022-07-06T07:31:48;23.70;56.50
44982;DHT22;30716;41.740;-70.400;2022-07-06T07:34:14;23.70;56.60
44982;DHT22;30716;41.740;-70.400;2022-07-06T07:36:40;23.70;56.70
44982;DHT22;30716;41.740;-70.400;2022-07-06T07:39:06;23.70;56.70
44982;DHT22;30716;41.740;-70.400;2022-07-06T07:41:32;23.70;57.50
44982;DHT22;30716;41.740;-70.400;2022-07-06T07:43:58;23.70;56.70
44982;DHT22;30716;41.740;-70.400;2022-07-06T07:46:24;23.70;56.80
44982;DHT22;30716;41.740;-70.400;2022-07-06T07:48:51;23.70;56.80
44982;DHT22;30716;41.740;-70.400;2022-07-06T07:51:17;23.70;56.80
44982;DHT22;30716;41.740;-70.400;2022-07-06T07:53:44;23.70;56.80
44982;DHT22;30716;41.740;-70.400;2022-07-06T07:56:10;23.70;56.80
44982;DHT22;30716;41.740;-70.400;2022-07-06T07:58:36;23.70;56.90
44982;DHT22;30716;41.740;-70.400;2022-07-06T08:01:03;23.70;56.90
44982;DHT22;30716;41.740;-70.400;2022-07-06T08:03:30;23.70;56.80
44982;DHT22;30716;41.740;-70.400;2022-07-06T08:05:57;23.70;56.80
44982;DHT22;30716;41.740;-70.400;2022-07-06T08:08:24;23.70;56.90
44982;DHT22;30716;41.740;-70.400;2022-07-06T08:10:50;23.70;56.90
44982;DHT22;30716;41.740;-70.400;2022-07-06T08:13:16;23.70;57.00
44982;DHT22;30716;41.740;-70.400;2022-07-06T08:15:42;23.70;56.90
44982;DHT22;30716;41.740;-70.400;2022-07-06T08:18:09;23.70;56.90
44982;DHT22;30716;41.740;-70.400;2022-07-06T08:20:38;23.70;56.90
44982;DHT22;30716;41.740;-70.400;2022-07-06T08:23:04;23.70;56.80
44982;DHT22;30716;41.740;-70.400;2022-07-06T08:25:31;23.70;56.90
44982;DHT22;30716;41.740;-70.400;2022-07-06T08:27:57;23.70;56.90
44982;DHT22;30716;41.740;-70.400;2022-07-06T08:30:23;23.70;56.90
44982;DHT22;30716;41.740;-70.400;2022-07-06T08:32:50;23.70;56.90
44982;DHT22;30716;41.740;-70.400;2022-07-06T08:35:16;23.70;56.90
44982;DHT22;30716;41.740;-70.400;2022-07-06T08:37:42;23.70;57.70
44982;DHT22;30716;41.740;-70.400;2022-07-06T08:40:09;23.70;56.90
44982;DHT22;30716;41.740;-70.400;2022-07-06T08:42:36;23.70;57.10
44982;DHT22;30716;41.740;-70.400;2022-07-06T08:45:04;23.70;57.20
44982;DHT22;30716;41.740;-70.400;2022-07-06T08:47:31;23.70;57.20
44982;DHT22;30716;41.740;-70.400;2022-07-06T08:49:57;23.70;57.10
44982;DHT22;30716;41.740;-70.400;2022-07-06T08:52:24;23.70;57.10
44982;DHT22;30716;41.740;-70.400;2022-07-06T08:54:51;23.70;57.10
44982;DHT22;30716;41.740;-70.400;2022-07-06T08:57:17;23.70;57.10
44982;DHT22;30716;41.740;-70.400;2022-07-06T08:59:44;23.70;57.20
44982;DHT22;30716;41.740;-70.400;2022-07-06T09:02:11;23.70;57.20
44982;DHT22;30716;41.740;-70.400;2022-07-06T09:04:37;23.70;57.20
44982;DHT22;30716;41.740;-70.400;2022-07-06T09:07:04;23.70;57.20
44982;DHT22;30716;41.740;-70.400;2022-07-06T09:09:31;23.70;57.20
44982;DHT22;30716;41.740;-70.400;2022-07-06T09:11:58;23.70;57.20
44982;DHT22;30716;41.740;-70.400;2022-07-06T09:14:25;23.70;57.10
44982;DHT22;30716;41.740;-70.400;2022-07-06T09:17:05;23.70;57.20
44982;DHT22;30716;41.740;-70.400;2022-07-06T09:19:33;23.70;57.10
44982;DHT22;30716;41.740;-70.400;2022-07-06T09:22:01;23.70;57.10
44982;DHT22;30716;41.740;-70.400;2022-07-06T09:24:27;23.70;57.20
44982;DHT22;30716;41.740;-70.400;2022-07-06T09:26:57;23.70;57.20
44982;DHT22;30716;41.740;-70.400;2022-07-06T09:29:28;23.70;57.20
44982;DHT22;30716;41.740;-70.400;2022-07-06T09:31:58;23.70;57.20
44982;DHT22;30716;41.740;-70.400;2022-07-06T09:34:25;23.70;57.20
44982;DHT22;30716;41.740;-70.400;2022-07-06T09:37:06;23.70;57.20
44982;DHT22;30716;41.740;-70.400;2022-07-06T09:39:32;23.70;57.20
44982;DHT22;30716;41.740;-70.400;2022-07-06T09:42:00;23.70;57.30
44982;DHT22;30716;41.740;-70.400;2022-07-06T09:44:27;23.70;57.40
44982;DHT22;30716;41.740;-70.400;2022-07-06T09:46:56;23.70;57.70
44982;DHT22;30716;41.740;-70.400;2022-07-06T09:49:23;23.70;57.50
44982;DHT22;30716;41.740;-70.400;2022-07-06T09:51:52;23.70;57.70
44982;DHT22;30716;41.740;-70.400;2022-07-06T09:54:18;23.70;57.60
44982;DHT22;30716;41.740;-70.400;2022-07-06T09:56:47;23.70;57.50
44982;DHT22;30716;41.740;-70.400;2022-07-06T09:59:26;23.70;57.50
44982;DHT22;30716;41.740;-70.400;2022-07-06T10:01:55;23.70;57.50
44982;DHT22;30716;41.740;-70.400;2022-07-06T10:04:23;23.70;57.50
44982;DHT22;30716;41.740;-70.400;2022-07-06T10:06:49;23.70;57.60
44982;DHT22;30716;41.740;-70.400;2022-07-06T10:09:16;23.70;57.60
44982;DHT22;30716;41.740;-70.400;2022-07-06T10:11:57;23.70;57.60
44982;DHT22;30716;41.740;-70.400;2022-07-06T10:14:28;23.70;57.60
44982;DHT22;30716;41.740;-70.400;2022-07-06T10:16:59;23.70;57.50
44982;DHT22;30716;41.740;-70.400;2022-07-06T10:19:26;23.70;57.50
44982;DHT22;30716;41.740;-70.400;2022-07-06T10:21:53;23.70;57.50
44982;DHT22;30716;41.740;-70.400;2022-07-06T10:24:22;23.70;57.60
44982;DHT22;30716;41.740;-70.400;2022-07-06T10:26:48;23.70;57.80
44982;DHT22;30716;41.740;-70.400;2022-07-06T10:29:15;23.70;57.70
44982;DHT22;30716;41.740;-70.400;2022-07-06T10:31:44;23.70;57.50
44982;DHT22;30716;41.740;-70.400;2022-07-06T10:34:12;23.70;57.70
44982;DHT22;30716;41.740;-70.400;2022-07-06T10:36:40;23.70;57.20
44982;DHT22;30716;41.740;-70.400;2022-07-06T10:39:07;23.70;57.90
44982;DHT22;30716;41.740;-70.400;2022-07-06T10:41:53;23.60;56.70
44982;DHT22;30716;41.740;-70.400;2022-07-06T10:44:25;23.60;56.60
44982;DHT22;30716;41.740;-70.400;2022-07-06T10:46:56;23.60;56.60
44982;DHT22;30716;41.740;-70.400;2022-07-06T10:49:24;23.50;56.50
44982;DHT22;30716;41.740;-70.400;2022-07-06T10:51:51;23.50;56.60
44982;DHT22;30716;41.740;-70.400;2022-07-06T10:54:19;23.50;56.80
44982;DHT22;30716;41.740;-70.400;2022-07-06T10:56:47;23.50;57.00
44982;DHT22;30716;41.740;-70.400;2022-07-06T10:59:21;23.50;57.20
44982;DHT22;30716;41.740;-70.400;2022-07-06T11:02:16;23.50;57.30
44982;DHT22;30716;41.740;-70.400;2022-07-06T11:04:44;23.50;57.20
44982;DHT22;30716;41.740;-70.400;2022-07-06T11:07:21;23.50;57.20
44982;DHT22;30716;41.740;-70.400;2022-07-06T11:09:59;23.50;57.30
44982;DHT22;30716;41.740;-70.400;2022-07-06T11:12:26;23.50;57.40
44982;DHT22;30716;41.740;-70.400;2022-07-06T11:14:52;23.60;57.50
44982;DHT22;30716;41.740;-70.400;2022-07-06T11:17:19;23.50;57.40
44982;DHT22;30716;41.740;-70.400;2022-07-06T11:19:50;23.60;57.50
44982;DHT22;30716;41.740;-70.400;2022-07-06T11:22:17;23.60;57.70
44982;DHT22;30716;41.740;-70.400;2022-07-06T11:24:44;23.50;57.70
44982;DHT22;30716;41.740;-70.400;2022-07-06T11:27:11;23.60;57.80
44982;DHT22;30716;41.740;-70.400;2022-07-06T11:29:37;23.50;57.70
44982;DHT22;30716;41.740;-70.400;2022-07-06T11:32:06;23.50;57.70
44982;DHT22;30716;41.740;-70.400;2022-07-06T11:34:37;23.60;57.90
44982;DHT22;30716;41.740;-70.400;2022-07-06T11:37:10;23.60;57.90
44982;DHT22;30716;41.740;-70.400;2022-07-06T11:39:43;23.60;57.40
44982;DHT22;30716;41.740;-70.400;2022-07-06T11:42:10;23.50;57.00
44982;DHT22;30716;41.740;-70.400;2022-07-06T11:44:37;23.50;56.70
44982;DHT22;30716;41.740;-70.400;2022-07-06T11:47:04;23.50;56.70
44982;DHT22;30716;41.740;-70.400;2022-07-06T11:49:31;23.50;56.50
44982;DHT22;30716;41.740;-70.400;2022-07-06T11:51:58;23.50;56.50
44982;DHT22;30716;41.740;-70.400;2022-07-06T11:54:25;23.40;56.40
44982;DHT22;30716;41.740;-70.400;2022-07-06T11:56:54;23.40;56.10
44982;DHT22;30716;41.740;-70.400;2022-07-06T11:59:31;23.40;55.70
44982;DHT22;30716;41.740;-70.400;2022-07-06T12:02:04;23.40;55.60
44982;DHT22;30716;41.740;-70.400;2022-07-06T12:04:33;23.30;55.80
44982;DHT22;30716;41.740;-70.400;2022-07-06T12:07:10;23.40;55.90
44982;DHT22;30716;41.740;-70.400;2022-07-06T12:09:43;23.40;56.00
44982;DHT22;30716;41.740;-70.400;2022-07-06T12:12:10;23.40;55.90
44982;DHT22;30716;41.740;-70.400;2022-07-06T12:14:39;23.40;55.90
44982;DHT22;30716;41.740;-70.400;2022-07-06T12:17:07;23.40;56.00
44982;DHT22;30716;41.740;-70.400;2022-07-06T12:19:34;23.40;56.00
44982;DHT22;30716;41.740;-70.400;2022-07-06T12:22:01;23.40;56.00
44982;DHT22;30716;41.740;-70.400;2022-07-06T12:24:30;23.40;56.30
44982;DHT22;30716;41.740;-70.400;2022-07-06T12:26:57;23.40;56.40
44982;DHT22;30716;41.740;-70.400;2022-07-06T12:29:24;23.40;56.40
44982;DHT22;30716;41.740;-70.400;2022-07-06T12:31:55;23.40;56.50
44982;DHT22;30716;41.740;-70.400;2022-07-06T12:34:26;23.40;56.40
44982;DHT22;30716;41.740;-70.400;2022-07-06T12:36:55;23.50;56.50
44982;DHT22;30716;41.740;-70.400;2022-07-06T12:39:26;23.50;56.50
44982;DHT22;30716;41.740;-70.400;2022-07-06T12:41:54;23.50;56.20
44982;DHT22;30716;41.740;-70.400;2022-07-06T12:44:23;23.40;56.00
44982;DHT22;30716;41.740;-70.400;2022-07-06T12:49:27;23.40;55.80
44982;DHT22;30716;41.740;-70.400;2022-07-06T12:54:20;23.30;55.60
44982;DHT22;30716;41.740;-70.400;2022-07-06T12:59:42;23.30;55.40
44982;DHT22;30716;41.740;-70.400;2022-07-06T13:02:17;23.30;55.30
44982;DHT22;30716;41.740;-70.400;2022-07-06T13:04:43;23.20;55.10
44982;DHT22;30716;41.740;-70.400;2022-07-06T13:07:18;23.20;55.80
44982;DHT22;30716;41.740;-70.400;2022-07-06T13:09:47;23.20;54.80
44982;DHT22;30716;41.740;-70.400;2022-07-06T13:12:13;23.20;54.80
44982;DHT22;30716;41.740;-70.400;2022-07-06T13:14:39;23.10;54.50
44982;DHT22;30716;41.740;-70.400;2022-07-06T13:17:05;23.10;54.60
44982;DHT22;30716;41.740;-70.400;2022-07-06T13:19:31;23.00;54.40
44982;DHT22;30716;41.740;-70.400;2022-07-06T13:21:57;23.00;54.30
44982;DHT22;30716;41.740;-70.400;2022-07-06T13:24:24;23.00;54.10
44982;DHT22;30716;41.740;-70.400;2022-07-06T13:26:50;23.00;54.00
44982;DHT22;30716;41.740;-70.400;2022-07-06T13:29:16;23.00;54.30
44982;DHT22;30716;41.740;-70.400;2022-07-06T13:31:42;23.00;54.30
44982;DHT22;30716;41.740;-70.400;2022-07-06T13:34:08;23.00;54.50
44982;DHT22;30716;41.740;-70.400;2022-07-06T13:36:35;23.00;54.60
44982;DHT22;30716;41.740;-70.400;2022-07-06T13:39:02;23.00;54.50
44982;DHT22;30716;41.740;-70.400;2022-07-06T13:41:29;23.10;54.70
44982;DHT22;30716;41.740;-70.400;2022-07-06T13:43:55;23.10;54.80
44982;DHT22;30716;41.740;-70.400;2022-07-06T13:46:21;23.10;54.80
44982;DHT22;30716;41.740;-70.400;2022-07-06T13:48:47;23.10;54.80
44982;DHT22;30716;41.740;-70.400;2022-07-06T13:51:14;23.10;54.80
44982;DHT22;30716;41.740;-70.400;2022-07-06T13:53:40;23.00;54.60
44982;DHT22;30716;41.740;-70.400;2022-07-06T13:56:06;23.00;54.00
44982;DHT22;30716;41.740;-70.400;2022-07-06T13:58:34;23.00;53.80
44982;DHT22;30716;41.740;-70.400;2022-07-06T14:01:00;22.90;53.70
44982;DHT22;30716;41.740;-70.400;2022-07-06T14:03:26;22.90;53.50
44982;DHT22;30716;41.740;-70.400;2022-07-06T14:05:57;22.90;53.70
44982;DHT22;30716;41.740;-70.400;2022-07-06T14:08:24;22.90;53.90
44982;DHT22;30716;41.740;-70.400;2022-07-06T14:10:50;22.90;54.10
44982;DHT22;30716;41.740;-70.400;2022-07-06T14:13:16;22.90;54.20
44982;DHT22;30716;41.740;-70.400;2022-07-06T14:15:43;23.00;54.30
44982;DHT22;30716;41.740;-70.400;2022-07-06T14:18:09;23.00;54.30
44982;DHT22;30716;41.740;-70.400;2022-07-06T14:20:35;23.00;54.50
44982;DHT22;30716;41.740;-70.400;2022-07-06T14:23:01;23.00;54.50
44982;DHT22;30716;41.740;-70.400;2022-07-06T14:25:27;23.00;54.50
44982;DHT22;30716;41.740;-70.400;2022-07-06T14:27:53;23.00;54.60
44982;DHT22;30716;41.740;-70.400;2022-07-06T14:30:20;23.00;54.50
44982;DHT22;30716;41.740;-70.400;2022-07-06T14:32:46;22.90;54.20
44982;DHT22;30716;41.740;-70.400;2022-07-06T14:35:12;22.90;54.20
44982;DHT22;30716;41.740;-70.400;2022-07-06T14:37:38;22.90;54.00
44982;DHT22;30716;41.740;-70.400;2022-07-06T14:40:05;22.90;53.80
44982;DHT22;30716;41.740;-70.400;2022-07-06T14:42:31;22.90;53.70
44982;DHT22;30716;41.740;-70.400;2022-07-06T14:44:57;22.90;53.70
44982;DHT22;30716;41.740;-70.400;2022-07-06T14:47:24;22.90;53.70
44982;DHT22;30716;41.740;-70.400;2022-07-06T14:49:50;22.90;53.70
44982;DHT22;30716;41.740;-70.400;2022-07-06T14:52:18;22.90;53.70
44982;DHT22;30716;41.740;-70.400;2022-07-06T14:54:44;22.80;53.50
44982;DHT22;30716;41.740;-70.400;2022-07-06T14:57:10;22.80;54.30
44982;DHT22;30716;41.740;-70.400;2022-07-06T14:59:37;22.80;53.50
44982;DHT22;30716;41.740;-70.400;2022-07-06T15:02:03;22.80;53.50
44982;DHT22;30716;41.740;-70.400;2022-07-06T15:04:30;22.80;53.60
44982;DHT22;30716;41.740;-70.400;2022-07-06T15:06:56;22.90;53.60
44982;DHT22;30716;41.740;-70.400;2022-07-06T15:09:22;22.90;53.50
44982;DHT22;30716;41.740;-70.400;2022-07-06T15:11:49;22.90;53.60
44982;DHT22;30716;41.740;-70.400;2022-07-06T15:14:15;22.90;53.60